CheckWX is a tool to help pilots better visualize weather data.  It is not intended as a substitute for an official pre-flight weather briefing.

16:24:14 UTC

KSBN TAF
South Bend International Airport
South Bend, Indiana, USA
KSBN 171120Z 1712/1812 31007KT P6SM SCT030 BKN120 FM171500 32011KT P6SM BKN035 FM180100 VRB03KT P6SM SCT040

Oct-17@
12:00 UTC

Oct-17 @ 12:00 UTC

Oct-17@
15:00 UTC

Oct-17 @ 15:00 UTC

KSBN 171120Z 1712/1812 31007KT P6SM SCT030 BKN120

Expired

Wind
  • 310° at 7 KTS
Cloud Levels
  • Scattered at 3,000' AGL
  • Broken at 12,000' AGL

Oct-17@
15:00 UTC

Oct-17 @ 15:00 UTC

Oct-18@
01:00 UTC

Oct-18 @ 01:00 UTC

FM171500 32011KT P6SM BKN035

From

From Standard forecast or significant change

Wind
  • 320° at 11 KTS
Cloud Levels
  • Broken at 3,500' AGL

Oct-18@
01:00 UTC

Oct-18 @ 01:00 UTC

Oct-18@
12:00 UTC

Oct-18 @ 12:00 UTC

FM180100 VRB03KT P6SM SCT040

From

From Standard forecast or significant change

Wind
  • Variable at 3 KTS
Cloud Levels
  • Scattered at 4,000' AGL